createdAt,value
2023-03-06T00:00:38.896Z,5.20
2023-03-06T00:03:06.324Z,6.50
2023-03-06T00:05:32.923Z,5.97
2023-03-06T00:07:59.825Z,5.37
2023-03-06T00:10:30.665Z,6.40
2023-03-06T00:13:02.907Z,4.83
2023-03-06T00:15:29.671Z,5.90
2023-03-06T00:17:57.730Z,4.87
2023-03-06T00:20:25.661Z,5.97
2023-03-06T00:22:52.309Z,5.97
2023-03-06T00:25:21.199Z,4.40
2023-03-06T00:27:48.589Z,4.40
2023-03-06T00:30:19.863Z,4.93
2023-03-06T00:32:46.704Z,5.03
2023-03-06T00:35:14.052Z,5.07
2023-03-06T00:37:40.914Z,7.10
2023-03-06T00:40:15.103Z,4.23
2023-03-06T00:42:41.703Z,4.70
2023-03-06T00:45:09.176Z,7.63
2023-03-06T00:47:35.800Z,6.77
2023-03-06T00:50:02.445Z,5.53
2023-03-06T00:52:28.987Z,8.50
2023-03-06T00:54:55.889Z,4.97
2023-03-06T00:57:24.862Z,5.47
2023-03-06T00:59:51.504Z,4.40
2023-03-06T01:02:20.399Z,6.13
2023-03-06T01:04:47.142Z,4.27
2023-03-06T01:07:13.758Z,6.03
2023-03-06T01:09:40.425Z,6.37
2023-03-06T01:12:09.920Z,4.83
2023-03-06T01:14:36.597Z,7.53
2023-03-06T01:17:07.954Z,6.10
2023-03-06T01:19:34.537Z,6.00
2023-03-06T01:22:01.175Z,8.73
2023-03-06T01:24:28.576Z,7.23
2023-03-06T01:26:55.190Z,7.20
2023-03-06T01:29:21.754Z,6.70
2023-03-06T01:31:48.398Z,8.20
2023-03-06T01:34:14.991Z,6.50
2023-03-06T01:36:41.593Z,6.50
2023-03-06T01:39:08.199Z,9.53
2023-03-06T01:41:34.802Z,7.20
2023-03-06T01:44:02.373Z,6.67
2023-03-06T01:46:28.922Z,11.13
2023-03-06T01:49:16.813Z,7.80
2023-03-06T01:52:11.830Z,8.10
2023-03-06T01:54:47.128Z,8.87
2023-03-06T01:57:19.176Z,8.67
2023-03-06T01:59:51.589Z,6.80
2023-03-06T02:02:18.265Z,9.03
2023-03-06T02:04:46.253Z,8.63
2023-03-06T02:07:15.642Z,8.93
2023-03-06T02:09:47.037Z,9.20
2023-03-06T02:12:20.825Z,6.57
2023-03-06T02:14:48.149Z,7.67
2023-03-06T02:17:18.279Z,10.07
2023-03-06T02:19:55.974Z,12.07
2023-03-06T02:22:25.489Z,9.07
2023-03-06T02:25:00.836Z,8.10
2023-03-06T02:27:27.937Z,8.70
2023-03-06T02:29:54.751Z,8.00
2023-03-06T02:32:21.350Z,9.37
2023-03-06T02:34:51.043Z,7.97
2023-03-06T02:37:18.163Z,7.37
2023-03-06T02:39:49.855Z,9.27
2023-03-06T02:42:22.274Z,8.83
2023-03-06T02:44:51.214Z,8.23
2023-03-06T02:47:20.656Z,8.80
2023-03-06T02:49:47.269Z,10.40
2023-03-06T02:52:13.857Z,12.07
2023-03-06T02:54:42.642Z,10.30
2023-03-06T02:57:09.287Z,10.07
2023-03-06T02:59:36.099Z,8.27
2023-03-06T03:02:02.707Z,9.43
2023-03-06T03:04:31.593Z,8.60
2023-03-06T03:06:58.163Z,9.57
2023-03-06T03:09:28.385Z,9.33
2023-03-06T03:11:54.996Z,9.33
2023-03-06T03:14:21.540Z,9.50
2023-03-06T03:16:48.212Z,11.57
2023-03-06T03:19:14.831Z,15.33
2023-03-06T03:21:41.699Z,13.67
2023-03-06T03:24:08.649Z,10.90
2023-03-06T03:26:35.157Z,14.00
2023-03-06T03:29:04.226Z,10.73
2023-03-06T03:31:31.701Z,13.50
2023-03-06T03:33:58.473Z,9.53
2023-03-06T03:36:26.109Z,12.10
2023-03-06T03:38:52.667Z,11.20
2023-03-06T03:41:19.237Z,11.33
2023-03-06T03:43:45.783Z,12.17
2023-03-06T03:46:12.432Z,13.43
2023-03-06T03:48:41.447Z,14.30
2023-03-06T03:51:13.216Z,10.77
2023-03-06T03:53:40.082Z,12.23
2023-03-06T03:56:06.908Z,10.17
2023-03-06T03:58:38.335Z,11.47
2023-03-06T04:01:08.241Z,11.10
2023-03-06T04:03:34.995Z,11.17
2023-03-06T04:06:02.103Z,12.17
2023-03-06T04:08:29.014Z,10.27
2023-03-06T04:10:56.090Z,10.83
2023-03-06T04:13:25.220Z,8.73
2023-03-06T04:15:55.820Z,10.33
2023-03-06T04:18:23.280Z,12.40
2023-03-06T04:20:50.065Z,13.20
2023-03-06T04:23:19.594Z,12.07
2023-03-06T04:25:46.750Z,13.00
2023-03-06T04:28:14.090Z,14.10
2023-03-06T04:30:43.116Z,10.40
2023-03-06T04:33:14.520Z,13.70
2023-03-06T04:35:43.372Z,10.43
2023-03-06T04:38:12.504Z,13.00
2023-03-06T04:40:39.107Z,14.47
2023-03-06T04:43:06.215Z,12.93
2023-03-06T04:45:33.706Z,12.43
2023-03-06T04:48:03.119Z,12.20
2023-03-06T04:50:32.580Z,12.73
2023-03-06T04:53:04.819Z,18.07
2023-03-06T04:55:31.846Z,12.20
2023-03-06T04:58:00.670Z,11.33
2023-03-06T05:00:30.673Z,14.10
2023-03-06T05:03:02.518Z,17.03
2023-03-06T05:05:30.007Z,14.70
2023-03-06T05:07:57.524Z,12.60
2023-03-06T05:10:24.138Z,11.77
2023-03-06T05:12:50.837Z,13.80
2023-03-06T05:15:17.911Z,13.47
2023-03-06T05:17:46.115Z,13.87
2023-03-06T05:20:16.825Z,14.27
2023-03-06T05:22:43.607Z,13.77
2023-03-06T05:25:11.248Z,16.67
2023-03-06T05:27:41.102Z,15.10
2023-03-06T05:30:14.060Z,13.97
2023-03-06T05:32:43.415Z,14.73
2023-03-06T05:35:17.148Z,14.90
2023-03-06T05:37:46.284Z,16.43
2023-03-06T05:40:14.081Z,16.10
2023-03-06T05:42:40.781Z,14.87
2023-03-06T05:45:08.383Z,14.97
2023-03-06T05:47:35.032Z,12.90
2023-03-06T05:50:01.735Z,16.80
2023-03-06T05:52:28.428Z,13.97
2023-03-06T05:54:55.345Z,22.07
2023-03-06T05:57:23.597Z,16.27
2023-03-06T05:59:50.784Z,17.13
2023-03-06T06:02:18.374Z,16.00
2023-03-06T06:04:45.794Z,17.90
2023-03-06T06:07:16.533Z,18.10
2023-03-06T06:09:48.008Z,20.03
2023-03-06T06:12:14.669Z,22.77
2023-03-06T06:14:41.380Z,18.07
2023-03-06T06:17:08.098Z,18.97
2023-03-06T06:19:34.704Z,18.30
2023-03-06T06:22:02.804Z,19.60
2023-03-06T06:24:30.342Z,18.00
2023-03-06T06:26:58.186Z,19.33
2023-03-06T06:29:26.148Z,18.57
2023-03-06T06:31:53.380Z,21.33
2023-03-06T06:34:20.555Z,20.17
2023-03-06T06:36:47.866Z,20.47
2023-03-06T06:39:19.403Z,19.53
2023-03-06T06:42:02.721Z,19.03
2023-03-06T06:44:32.537Z,19.57
2023-03-06T06:49:50.592Z,18.17
2023-03-06T06:52:18.773Z,19.23
2023-03-06T06:54:45.988Z,19.33
2023-03-06T06:57:17.716Z,20.20
2023-03-06T06:59:44.451Z,19.57
2023-03-06T07:02:13.775Z,16.13
2023-03-06T07:04:52.379Z,19.00
2023-03-06T07:07:25.446Z,20.80
2023-03-06T07:09:52.780Z,17.17
2023-03-06T07:12:19.631Z,19.83
2023-03-06T07:14:48.967Z,24.60
2023-03-06T07:17:18.414Z,17.17
2023-03-06T07:19:50.181Z,17.73
2023-03-06T07:22:19.073Z,21.03
2023-03-06T07:24:48.099Z,18.90
2023-03-06T07:27:14.690Z,20.77
2023-03-06T07:29:43.168Z,20.77
2023-03-06T07:32:11.632Z,23.33
2023-03-06T07:34:38.240Z,18.93
2023-03-06T07:37:04.986Z,20.10
2023-03-06T07:39:34.078Z,21.30
2023-03-06T07:42:01.081Z,19.57
2023-03-06T07:44:30.161Z,19.60
2023-03-06T07:46:57.145Z,18.77
2023-03-06T07:49:23.776Z,19.40
2023-03-06T07:51:50.374Z,22.37
2023-03-06T07:54:16.953Z,23.30
2023-03-06T07:56:47.167Z,28.00
2023-03-06T07:59:33.178Z,21.73
2023-03-06T08:02:03.936Z,20.93
2023-03-06T08:04:31.722Z,23.90
2023-03-06T08:07:01.903Z,23.00
2023-03-06T08:09:29.965Z,22.00
2023-03-06T08:11:59.956Z,25.43
2023-03-06T08:14:26.789Z,21.67
2023-03-06T08:16:56.340Z,24.23
2023-03-06T08:19:23.082Z,23.37
2023-03-06T08:21:49.636Z,22.87
2023-03-06T08:24:16.775Z,23.17
2023-03-06T08:26:45.722Z,22.80
2023-03-06T08:29:12.771Z,22.43
2023-03-06T08:31:46.969Z,18.30
2023-03-06T08:34:17.460Z,21.40
2023-03-06T08:36:46.494Z,18.80
2023-03-06T08:39:14.211Z,19.17
2023-03-06T08:41:42.268Z,18.67
2023-03-06T08:44:09.449Z,18.77
2023-03-06T08:46:36.347Z,17.83
2023-03-06T08:49:03.471Z,17.60
2023-03-06T08:51:30.059Z,17.20
2023-03-06T08:53:57.907Z,14.90
2023-03-06T08:56:34.466Z,14.60
2023-03-06T08:59:02.760Z,11.80
2023-03-06T09:01:32.338Z,13.70
2023-03-06T09:04:01.736Z,11.37
2023-03-06T09:06:33.525Z,13.55
2023-03-06T09:09:00.373Z,14.15
2023-03-06T09:11:27.856Z,11.53
2023-03-06T09:13:55.416Z,9.43
2023-03-06T09:16:22.102Z,12.67
2023-03-06T09:18:50.915Z,11.75
2023-03-06T09:21:17.588Z,11.87
2023-03-06T09:23:44.425Z,11.38
2023-03-06T09:26:12.337Z,9.13
2023-03-06T09:28:40.299Z,9.38
2023-03-06T09:31:12.409Z,10.20
2023-03-06T09:33:39.428Z,9.23
2023-03-06T09:36:08.148Z,8.77
2023-03-06T09:38:34.999Z,10.40
2023-03-06T09:41:22.912Z,7.78
2023-03-06T09:44:01.475Z,8.73
2023-03-06T09:46:31.272Z,12.07
2023-03-06T09:49:31.929Z,9.73
2023-03-06T09:52:10.625Z,6.10
2023-03-06T09:54:46.417Z,6.18
2023-03-06T09:57:26.487Z,9.52
2023-03-06T10:00:04.533Z,6.75
2023-03-06T10:02:44.801Z,10.23
2023-03-06T10:05:41.104Z,6.30
2023-03-06T10:08:27.162Z,7.80
2023-03-06T10:11:03.713Z,7.75
2023-03-06T10:13:35.443Z,5.63
2023-03-06T10:16:22.273Z,8.93
2023-03-06T10:18:49.318Z,8.60
2023-03-06T10:21:43.672Z,7.40
2023-03-06T10:24:47.995Z,12.48
2023-03-06T10:27:43.120Z,6.22
2023-03-06T10:30:33.786Z,7.00
2023-03-06T10:33:06.180Z,7.53
2023-03-06T10:35:45.666Z,7.15
2023-03-06T10:38:29.949Z,7.55
2023-03-06T10:41:08.060Z,8.93
2023-03-06T10:43:36.617Z,9.40
2023-03-06T10:46:06.683Z,7.55
2023-03-06T10:48:40.045Z,6.32
2023-03-06T10:51:18.818Z,9.50
2023-03-06T10:54:22.248Z,6.97
2023-03-06T10:56:48.843Z,7.53
2023-03-06T10:59:20.142Z,6.20
2023-03-06T11:01:51.522Z,7.22
2023-03-06T11:04:24.263Z,11.18
2023-03-06T11:07:18.087Z,7.78
2023-03-06T11:09:56.949Z,8.02
2023-03-06T11:12:32.341Z,8.60
2023-03-06T11:15:14.298Z,8.95
2023-03-06T11:17:53.427Z,11.93
2023-03-06T11:20:20.250Z,12.95
2023-03-06T11:22:52.210Z,16.40
2023-03-06T11:25:22.110Z,12.80
2023-03-06T11:27:57.841Z,12.32
2023-03-06T11:30:35.443Z,12.80
2023-03-06T11:33:15.332Z,10.20
2023-03-06T11:36:40.616Z,10.85
2023-03-06T11:39:36.758Z,11.68
2023-03-06T11:42:26.575Z,11.40
2023-03-06T11:45:05.080Z,10.80
2023-03-06T11:47:38.113Z,10.23
2023-03-06T11:50:07.631Z,11.45
2023-03-06T11:52:49.269Z,10.68
2023-03-06T11:55:24.052Z,11.60
2023-03-06T11:58:04.082Z,9.95
2023-03-06T12:00:54.061Z,34.15
2023-03-06T12:03:41.179Z,15.68
2023-03-06T12:06:15.712Z,12.77
2023-03-06T12:09:11.821Z,10.70
2023-03-06T12:11:50.279Z,12.93
2023-03-06T12:14:40.410Z,13.00
2023-03-06T12:17:39.004Z,14.73
2023-03-06T12:20:33.220Z,11.15
2023-03-06T12:23:16.650Z,10.48
2023-03-06T12:25:49.673Z,9.88
2023-03-06T12:28:19.380Z,10.23
2023-03-06T12:31:19.581Z,10.02
2023-03-06T12:33:56.528Z,7.05
2023-03-06T12:36:47.769Z,7.13
2023-03-06T12:39:45.269Z,9.25
2023-03-06T12:42:42.442Z,6.38
2023-03-06T12:45:33.739Z,8.10
2023-03-06T12:48:02.092Z,9.38
2023-03-06T12:50:33.005Z,7.70
2023-03-06T12:53:16.274Z,7.15
2023-03-06T12:55:46.546Z,7.40
2023-03-06T12:58:28.997Z,6.28
2023-03-06T13:01:05.883Z,9.07
2023-03-06T13:04:14.616Z,8.18
2023-03-06T13:07:02.060Z,7.25
2023-03-06T13:09:37.450Z,8.07
2023-03-06T13:12:06.218Z,6.00
2023-03-06T13:14:42.274Z,7.03
2023-03-06T13:17:24.069Z,10.20
2023-03-06T13:20:13.858Z,9.30
2023-03-06T13:22:44.358Z,9.35
2023-03-06T13:25:17.432Z,10.68
2023-03-06T13:27:53.225Z,8.63
2023-03-06T13:30:21.544Z,10.57
2023-03-06T13:32:52.821Z,11.00
2023-03-06T13:35:34.278Z,13.15
2023-03-06T13:38:01.518Z,11.10
2023-03-06T13:40:35.723Z,9.45
2023-03-06T13:43:07.917Z,11.00
2023-03-06T13:45:34.521Z,10.77
2023-03-06T13:48:37.564Z,11.50
2023-03-06T13:50:55.723Z,13.35
2023-03-06T13:53:50.079Z,13.55
2023-03-06T13:56:28.802Z,12.23
2023-03-06T13:59:25.918Z,12.45
2023-03-06T14:02:34.684Z,11.90
2023-03-06T14:05:03.884Z,14.60
2023-03-06T14:07:35.755Z,12.20
2023-03-06T14:10:15.603Z,12.95
2023-03-06T14:12:58.993Z,10.00
2023-03-06T14:15:53.889Z,12.18
2023-03-06T14:18:27.913Z,11.73
2023-03-06T14:21:07.526Z,12.45
2023-03-06T14:23:45.244Z,14.93
2023-03-06T14:26:17.594Z,12.65
2023-03-06T14:29:01.956Z,14.85
2023-03-06T14:31:32.132Z,12.38
2023-03-06T14:34:05.077Z,14.63
2023-03-06T14:36:45.391Z,13.38
2023-03-06T14:39:26.261Z,16.38
2023-03-06T14:42:08.478Z,12.88
2023-03-06T14:44:35.546Z,12.88
2023-03-06T14:47:25.011Z,13.18
2023-03-06T14:50:30.255Z,12.52
2023-03-06T14:53:16.662Z,13.10
2023-03-06T14:56:02.107Z,12.68
2023-03-06T14:58:36.855Z,14.13
2023-03-06T15:01:09.688Z,12.23
2023-03-06T15:03:51.104Z,15.45
2023-03-06T15:06:25.116Z,12.80
2023-03-06T15:09:02.599Z,10.63
2023-03-06T15:12:08.445Z,11.18
2023-03-06T15:14:43.342Z,17.02
2023-03-06T15:17:19.350Z,14.23
2023-03-06T15:19:50.885Z,15.65
2023-03-06T15:22:33.034Z,21.15
2023-03-06T15:25:22.308Z,17.05
2023-03-06T15:27:59.616Z,16.15
2023-03-06T15:30:33.113Z,18.55
2023-03-06T15:33:32.118Z,19.92
2023-03-06T15:36:03.768Z,18.10
2023-03-06T15:38:42.025Z,19.60
2023-03-06T15:41:31.848Z,17.23
2023-03-06T15:44:00.307Z,21.40
2023-03-06T15:46:27.523Z,19.75
2023-03-06T15:48:56.897Z,17.70
2023-03-06T15:51:25.826Z,20.92
2023-03-06T15:53:54.958Z,20.90
2023-03-06T15:56:28.979Z,19.23
2023-03-06T15:59:01.895Z,18.80
2023-03-06T16:01:28.674Z,21.88
2023-03-06T16:03:58.245Z,22.65
2023-03-06T16:06:25.633Z,21.23
2023-03-06T16:08:53.076Z,19.02
2023-03-06T16:11:41.884Z,18.20
2023-03-06T16:14:18.956Z,20.42
2023-03-06T16:16:45.757Z,20.77
2023-03-06T16:19:25.946Z,18.58
2023-03-06T16:21:55.103Z,20.48
2023-03-06T16:24:26.114Z,18.77
2023-03-06T16:26:54.965Z,18.73
2023-03-06T16:29:24.225Z,23.77
2023-03-06T16:31:51.212Z,22.58
2023-03-06T16:34:19.845Z,19.98
2023-03-06T16:36:48.611Z,19.48
2023-03-06T16:39:20.004Z,23.33
2023-03-06T16:41:47.185Z,18.15
2023-03-06T16:44:14.040Z,22.35
2023-03-06T16:46:45.276Z,22.55
2023-03-06T16:49:25.121Z,23.80
2023-03-06T16:51:53.137Z,20.90
2023-03-06T16:54:26.089Z,25.33
2023-03-06T16:56:52.687Z,24.45
2023-03-06T16:59:19.656Z,22.15
2023-03-06T17:01:46.360Z,26.25
2023-03-06T17:04:15.498Z,22.20
2023-03-06T17:06:44.386Z,22.90
2023-03-06T17:09:11.220Z,24.50
2023-03-06T17:11:43.090Z,24.45
2023-03-06T17:14:11.780Z,21.13
2023-03-06T17:16:40.397Z,22.63
2023-03-06T17:19:07.476Z,23.20
2023-03-06T17:21:35.440Z,24.30
2023-03-06T17:24:04.791Z,26.05
2023-03-06T17:26:31.418Z,24.52
2023-03-06T17:28:58.200Z,26.05
2023-03-06T17:31:27.096Z,23.45
2023-03-06T17:34:00.434Z,25.48
2023-03-06T17:36:28.517Z,30.98
2023-03-06T17:38:56.727Z,24.10
2023-03-06T17:41:24.683Z,25.55
2023-03-06T17:43:52.072Z,33.55
2023-03-06T17:46:23.333Z,28.25
2023-03-06T17:48:52.136Z,26.38
2023-03-06T17:51:18.708Z,30.63
2023-03-06T17:53:47.466Z,27.67
2023-03-06T17:56:17.579Z,25.42
2023-03-06T17:58:44.406Z,29.42
2023-03-06T18:01:15.802Z,29.77
2023-03-06T18:03:47.794Z,24.38
2023-03-06T18:06:15.787Z,26.02
2023-03-06T18:08:45.983Z,23.27
2023-03-06T18:11:13.668Z,26.05
2023-03-06T18:13:42.887Z,23.63
2023-03-06T18:16:12.188Z,23.88
2023-03-06T18:18:44.105Z,22.15
2023-03-06T18:21:13.434Z,22.70
2023-03-06T18:23:43.758Z,23.23
2023-03-06T18:26:19.545Z,24.05
2023-03-06T18:28:48.872Z,21.70
2023-03-06T18:31:19.904Z,24.00
2023-03-06T18:33:50.794Z,25.00
2023-03-06T18:36:24.626Z,22.42
2023-03-06T18:38:51.283Z,22.35
2023-03-06T18:41:19.822Z,21.20
2023-03-06T18:43:55.006Z,20.80
2023-03-06T18:46:25.358Z,24.38
2023-03-06T18:48:52.144Z,22.90
2023-03-06T18:51:20.186Z,20.70
2023-03-06T18:53:49.360Z,20.98
2023-03-06T18:56:19.141Z,26.80
2023-03-06T18:58:50.255Z,20.77
2023-03-06T19:01:17.791Z,21.00
2023-03-06T19:03:44.547Z,21.50
2023-03-06T19:06:16.853Z,22.67
2023-03-06T19:08:43.899Z,21.25
2023-03-06T19:11:14.377Z,21.73
2023-03-06T19:13:41.150Z,23.77
2023-03-06T19:16:08.248Z,24.20
2023-03-06T19:18:35.358Z,25.95
2023-03-06T19:21:16.263Z,24.02
2023-03-06T19:23:43.184Z,25.58
2023-03-06T19:26:10.425Z,23.13
2023-03-06T19:28:38.949Z,24.43
2023-03-06T19:31:13.048Z,27.38
2023-03-06T19:33:40.731Z,26.63
2023-03-06T19:36:09.906Z,25.65
2023-03-06T19:38:37.173Z,26.45
2023-03-06T19:41:04.404Z,27.53
2023-03-06T19:43:31.277Z,27.92
2023-03-06T19:45:58.336Z,28.50
2023-03-06T19:48:24.937Z,26.50
2023-03-06T19:50:51.568Z,23.50
2023-03-06T19:53:18.173Z,25.50
2023-03-06T19:55:44.719Z,27.45
2023-03-06T19:58:11.462Z,25.57
2023-03-06T20:00:38.235Z,24.73
2023-03-06T20:03:05.034Z,27.00
2023-03-06T20:05:31.717Z,27.35
2023-03-06T20:07:58.225Z,27.95
2023-03-06T20:10:24.811Z,25.70
2023-03-06T20:12:53.593Z,27.23
2023-03-06T20:15:22.226Z,28.85
2023-03-06T20:17:51.278Z,28.98
2023-03-06T20:20:18.115Z,25.33
2023-03-06T20:22:44.938Z,29.07
2023-03-06T20:25:11.584Z,23.17
2023-03-06T20:27:38.369Z,30.27
2023-03-06T20:30:07.817Z,24.60
2023-03-06T20:32:34.842Z,24.87
2023-03-06T20:35:01.593Z,27.42
2023-03-06T20:37:28.380Z,24.03
2023-03-06T20:39:55.050Z,27.00
2023-03-06T20:42:21.726Z,25.63
2023-03-06T20:44:50.571Z,23.57
2023-03-06T20:47:17.208Z,24.93
2023-03-06T20:49:43.820Z,24.13
2023-03-06T20:52:10.498Z,22.00
2023-03-06T20:54:37.372Z,25.67
2023-03-06T20:57:06.249Z,22.20
2023-03-06T20:59:35.152Z,23.08
2023-03-06T21:02:01.961Z,22.43
2023-03-06T21:04:28.765Z,22.07
2023-03-06T21:06:57.999Z,23.27
2023-03-06T21:09:27.069Z,22.75
2023-03-06T21:11:55.901Z,19.20
2023-03-06T21:14:22.620Z,21.57
2023-03-06T21:16:49.199Z,22.13
2023-03-06T21:19:15.848Z,22.60
2023-03-06T21:21:50.384Z,25.00
2023-03-06T21:24:21.212Z,25.75
2023-03-06T21:26:48.267Z,23.27
2023-03-06T21:29:14.992Z,22.58
2023-03-06T21:31:42.189Z,20.48
2023-03-06T21:34:10.609Z,24.58
2023-03-06T21:36:37.696Z,21.15
2023-03-06T21:39:06.335Z,23.00
2023-03-06T21:41:33.297Z,24.15
2023-03-06T21:44:02.562Z,20.20
2023-03-06T21:46:31.886Z,22.75
2023-03-06T21:48:58.676Z,20.67
2023-03-06T21:51:27.129Z,20.97
2023-03-06T21:53:57.477Z,22.35
2023-03-06T21:56:28.453Z,17.63
2023-03-06T21:58:58.297Z,19.48
2023-03-06T22:01:27.515Z,19.88
2023-03-06T22:03:54.860Z,18.02
2023-03-06T22:06:26.670Z,20.58
2023-03-06T22:08:55.620Z,16.80
2023-03-06T22:11:24.209Z,17.08
2023-03-06T22:13:53.211Z,15.05
2023-03-06T22:16:20.963Z,17.05
2023-03-06T22:18:49.651Z,15.87
2023-03-06T22:21:23.264Z,14.70
2023-03-06T22:23:57.267Z,15.93
2023-03-06T22:26:24.949Z,13.23
2023-03-06T22:28:51.565Z,11.80
2023-03-06T22:31:28.674Z,14.55
2023-03-06T22:33:57.482Z,12.18
2023-03-06T22:36:24.467Z,11.05
2023-03-06T22:38:56.154Z,8.75
2023-03-06T22:41:26.867Z,9.80
2023-03-06T22:44:01.590Z,8.83
2023-03-06T22:46:28.795Z,13.15
2023-03-06T22:49:00.119Z,11.07
2023-03-06T22:51:28.210Z,10.85
2023-03-06T22:53:54.845Z,9.38
2023-03-06T22:56:22.468Z,9.32
2023-03-06T22:58:49.227Z,9.48
2023-03-06T23:01:18.880Z,11.65
2023-03-06T23:03:48.070Z,11.13
2023-03-06T23:06:21.409Z,11.63
2023-03-06T23:08:54.579Z,8.25
2023-03-06T23:11:22.438Z,9.10
2023-03-06T23:13:55.524Z,10.38
2023-03-06T23:16:22.164Z,7.93
2023-03-06T23:18:51.219Z,8.60
2023-03-06T23:21:19.575Z,8.10
2023-03-06T23:23:53.118Z,9.57
2023-03-06T23:26:22.641Z,7.70
2023-03-06T23:28:49.599Z,9.55
2023-03-06T23:31:19.319Z,7.90
2023-03-06T23:33:45.997Z,8.45
2023-03-06T23:36:14.629Z,7.63
2023-03-06T23:38:44.412Z,8.60
2023-03-06T23:41:14.420Z,8.52
2023-03-06T23:43:41.198Z,8.38
2023-03-06T23:46:08.095Z,6.30
2023-03-06T23:48:39.001Z,6.72
2023-03-06T23:51:15.371Z,8.00
2023-03-06T23:53:42.755Z,6.43
2023-03-06T23:56:12.639Z,7.50
2023-03-06T23:58:39.354Z,6.10
